This is the latest recevied weather packets stored in our database for station/object ENRA. If no packets are shown the sender has not sent any weather packets the latest 10 day(s).
| Time | Temp. | Humidity | Pressure | Rain* | Wind** | Luminosity | Snow |
|---|---|---|---|---|---|---|---|
| 1777728788 | 2.78° C | 86% | 1006 hPa | - | - | - | - |
| 1777723389 | 3.89° C | 80% | 1006 hPa | - | - | - | - |
| 1777721590 | 3.89° C | 80% | 1005 hPa | - | - | - | - |
| 1777719789 | 5.56° C | 60% | 1005 hPa | - | - | - | - |
| 1777717988 | 5.56° C | 60% | 1005 hPa | - | - | - | - |
| 1777716189 | 5.56° C | 60% | 1005 hPa | - | - | - | - |
| 1777714390 | 5° C | 75% | 1005 hPa | - | - | - | - |
| 1777712588 | 5° C | 70% | 1005 hPa | - | - | - | - |
| 1777710788 | 5° C | 70% | 1004 hPa | - | - | - | - |
| 1777708987 | 3.89° C | 80% | 1004 hPa | - | - | - | - |
| 1777707187 | 3.89° C | 80% | 1004 hPa | - | - | - | - |
| 1777705389 | 5° C | 75% | 1003 hPa | - | - | - | - |
| 1777703588 | 5° C | 75% | 1004 hPa | - | - | - | - |
| 1777701788 | 5° C | 75% | 1003 hPa | - | - | - | - |
| 1777699988 | 3.89° C | 86% | 1003 hPa | - | - | - | - |
| 1777698188 | 5° C | 80% | 1002 hPa | - | - | - | - |
| 1777696409 | 5.56° C | 86% | 1002 hPa | - | - | - | - |
| 1777694588 | 5.56° C | 86% | 1002 hPa | - | - | - | - |
| 1777692790 | 5.56° C | 86% | 1002 hPa | - | - | - | - |
| 1777690989 | 5° C | 10% | - | - | - | - | - |
| 1777689209 | 5° C | 93% | 1003 hPa | - | - | - | - |
| 1777669387 | 5° C | 10% | - | - | - | - | - |
| 1777667588 | 5.56° C | 93% | 1007 hPa | - | - | - | - |
| 1777665788 | 5° C | 10% | - | - | - | - | - |
| 1777660388 | 5.56° C | 10% | - | - | - | - | - |
* Rain since midnight (hover to see other rain measurements)
** Current wind speed in m/s (hover to see current wind gust speed)